createdAt,value
2022-11-04T00:01:44.574Z,48.42
2022-11-04T00:04:14.152Z,47.72
2022-11-04T00:06:41.820Z,34.83
2022-11-04T00:09:13.127Z,38.25
2022-11-04T00:11:59.152Z,31.98
2022-11-04T00:14:28.964Z,28.88
2022-11-04T00:17:16.543Z,31.77
2022-11-04T00:20:02.693Z,26.50
2022-11-04T00:22:48.827Z,28.90
2022-11-04T00:25:34.591Z,25.88
2022-11-04T00:28:22.756Z,28.90
2022-11-04T00:30:53.640Z,24.92
2022-11-04T00:33:27.022Z,21.43
2022-11-04T00:35:56.969Z,25.58
2022-11-04T00:38:25.732Z,27.48
2022-11-04T00:40:53.272Z,26.60
2022-11-04T00:43:20.827Z,25.02
2022-11-04T00:45:47.964Z,21.98
2022-11-04T00:48:15.436Z,26.52
2022-11-04T00:50:42.727Z,29.75
2022-11-04T00:53:10.165Z,31.05
2022-11-04T00:55:38.106Z,24.48
2022-11-04T00:58:05.324Z,23.13
2022-11-04T01:00:32.810Z,26.35
2022-11-04T01:03:01.035Z,25.13
2022-11-04T01:05:28.492Z,21.50
2022-11-04T01:07:56.871Z,28.33
2022-11-04T01:10:24.327Z,25.90
2022-11-04T01:12:53.460Z,21.20
2022-11-04T01:15:21.052Z,23.67
2022-11-04T01:17:48.194Z,21.42
2022-11-04T01:20:15.642Z,21.13
2022-11-04T01:22:42.884Z,23.20
2022-11-04T01:25:10.524Z,21.85
2022-11-04T01:27:37.735Z,21.85
2022-11-04T01:30:05.814Z,22.73
2022-11-04T01:32:32.957Z,20.63
2022-11-04T01:35:00.438Z,22.08
2022-11-04T01:37:27.670Z,18.58
2022-11-04T01:39:55.124Z,20.92
2022-11-04T01:42:23.108Z,22.50
2022-11-04T01:45:00.873Z,21.13
2022-11-04T01:47:38.212Z,18.42
2022-11-04T01:50:08.686Z,22.15
2022-11-04T01:52:52.587Z,18.83
2022-11-04T01:55:27.020Z,19.42
2022-11-04T01:57:58.413Z,18.77
2022-11-04T02:00:25.937Z,20.85
2022-11-04T02:03:16.881Z,22.88
2022-11-04T02:05:46.243Z,17.90
2022-11-04T02:08:15.755Z,18.63
2022-11-04T02:10:51.911Z,23.42
2022-11-04T02:13:19.081Z,19.27
2022-11-04T02:16:05.137Z,22.23
2022-11-04T02:19:06.728Z,27.90
2022-11-04T02:22:14.244Z,18.73
2022-11-04T02:24:59.368Z,27.67
2022-11-04T02:27:51.554Z,19.02
2022-11-04T02:30:21.088Z,19.42
2022-11-04T02:33:00.715Z,17.35
2022-11-04T02:35:46.056Z,21.88
2022-11-04T02:38:44.026Z,19.10
2022-11-04T02:41:33.067Z,18.63
2022-11-04T02:44:07.091Z,18.35
2022-11-04T02:46:47.244Z,15.88
2022-11-04T02:49:23.646Z,18.80
2022-11-04T02:51:58.848Z,20.63
2022-11-04T02:54:33.854Z,18.27
2022-11-04T02:57:04.223Z,20.98
2022-11-04T02:59:40.047Z,17.48
2022-11-04T03:02:11.106Z,21.33
2022-11-04T03:04:42.413Z,24.50
2022-11-04T03:07:12.817Z,23.73
2022-11-04T03:09:45.391Z,18.60
2022-11-04T03:12:15.839Z,19.33
2022-11-04T03:14:49.174Z,23.73
2022-11-04T03:17:41.935Z,22.92
2022-11-04T03:20:17.093Z,14.55
2022-11-04T03:22:44.539Z,17.33
2022-11-04T03:25:12.449Z,18.17
2022-11-04T03:27:50.160Z,19.92
2022-11-04T03:30:20.710Z,25.30
2022-11-04T03:33:09.454Z,13.80
2022-11-04T03:35:37.111Z,25.65
2022-11-04T03:38:04.358Z,19.52
2022-11-04T03:40:31.787Z,18.90
2022-11-04T03:43:16.856Z,15.73
2022-11-04T03:45:45.210Z,16.20
2022-11-04T03:48:13.317Z,18.23
2022-11-04T03:50:47.743Z,13.82
2022-11-04T03:53:19.400Z,19.23
2022-11-04T03:59:04.552Z,17.17
2022-11-04T04:02:00.863Z,15.15
2022-11-04T04:04:32.449Z,18.13
2022-11-04T04:07:20.383Z,17.77
2022-11-04T04:09:55.687Z,19.25
2022-11-04T04:12:40.331Z,16.20
2022-11-04T04:15:20.072Z,17.48
2022-11-04T04:17:52.956Z,14.70
2022-11-04T04:20:24.010Z,16.83
2022-11-04T04:22:56.181Z,17.27
2022-11-04T04:28:15.959Z,15.13
2022-11-04T04:30:44.546Z,17.15
2022-11-04T04:33:16.267Z,17.73
2022-11-04T04:35:47.443Z,24.40
2022-11-04T04:38:46.408Z,18.77
2022-11-04T04:41:37.118Z,21.30
2022-11-04T04:44:32.469Z,17.85
2022-11-04T04:47:02.790Z,16.65
2022-11-04T04:49:35.382Z,19.50
2022-11-04T04:52:08.146Z,16.65
2022-11-04T04:54:35.682Z,18.05
2022-11-04T04:57:02.786Z,15.85
2022-11-04T04:59:30.266Z,17.35
2022-11-04T05:01:57.602Z,16.20
2022-11-04T05:04:25.137Z,15.88
2022-11-04T05:06:52.290Z,18.45
2022-11-04T05:09:19.766Z,14.80
2022-11-04T05:11:46.966Z,17.13
2022-11-04T05:14:14.192Z,15.73
2022-11-04T05:16:41.583Z,19.48
2022-11-04T05:19:09.100Z,15.68
2022-11-04T05:21:36.982Z,14.65
2022-11-04T05:24:04.347Z,17.58
2022-11-04T05:26:31.861Z,12.57
2022-11-04T05:28:59.059Z,21.20
2022-11-04T05:31:27.680Z,15.23
2022-11-04T05:33:54.804Z,17.45
2022-11-04T05:36:22.348Z,15.23
2022-11-04T05:38:55.661Z,14.93
2022-11-04T05:41:26.192Z,15.43
2022-11-04T05:44:01.662Z,15.25
2022-11-04T05:46:29.485Z,16.77
2022-11-04T05:48:56.844Z,14.00
2022-11-04T05:51:26.966Z,14.07
2022-11-04T05:53:54.287Z,13.13
2022-11-04T05:56:21.825Z,18.08
2022-11-04T05:58:49.102Z,13.82
2022-11-04T06:01:35.992Z,13.73
2022-11-04T06:04:05.910Z,12.55
2022-11-04T06:06:36.952Z,14.40
2022-11-04T06:09:04.446Z,15.63
2022-11-04T06:11:33.777Z,15.43
2022-11-04T06:14:01.035Z,11.55
2022-11-04T06:16:28.684Z,14.23
2022-11-04T06:18:59.946Z,14.25
2022-11-04T06:21:32.907Z,16.88
2022-11-04T06:24:00.542Z,15.68
2022-11-04T06:26:30.909Z,11.75
2022-11-04T06:28:58.383Z,14.63
2022-11-04T06:31:25.954Z,14.23
2022-11-04T06:33:53.318Z,14.35
2022-11-04T06:36:20.866Z,14.30
2022-11-04T06:38:48.098Z,11.05
2022-11-04T06:41:16.994Z,15.57
2022-11-04T06:43:44.693Z,16.15
2022-11-04T06:46:41.192Z,11.38
2022-11-04T06:49:13.223Z,13.30
2022-11-04T06:51:41.354Z,12.20
2022-11-04T06:54:08.775Z,15.80
2022-11-04T06:56:36.236Z,16.77
2022-11-04T06:59:04.186Z,16.40
2022-11-04T07:01:35.752Z,16.95
2022-11-04T07:04:05.500Z,17.80
2022-11-04T07:06:33.087Z,13.18
2022-11-04T07:09:02.596Z,12.73
2022-11-04T07:11:32.163Z,18.55
2022-11-04T07:13:59.499Z,16.33
2022-11-04T07:16:27.023Z,20.35
2022-11-04T07:18:55.486Z,14.73
2022-11-04T07:21:23.633Z,21.92
2022-11-04T07:23:50.931Z,22.77
2022-11-04T07:26:18.392Z,18.83
2022-11-04T07:28:46.067Z,14.52
2022-11-04T07:31:15.180Z,17.73
2022-11-04T07:33:42.408Z,16.40
2022-11-04T07:36:12.697Z,19.08
2022-11-04T07:38:39.852Z,16.88
2022-11-04T07:41:08.433Z,15.45
2022-11-04T07:43:35.726Z,18.20
2022-11-04T07:46:07.388Z,14.85
2022-11-04T07:48:35.435Z,22.52
2022-11-04T07:51:04.384Z,19.38
2022-11-04T07:53:31.881Z,18.83
2022-11-04T07:56:03.188Z,16.73
2022-11-04T07:58:30.338Z,15.17
2022-11-04T08:00:59.952Z,24.25
2022-11-04T08:03:27.416Z,19.88
2022-11-04T08:06:00.095Z,15.32
2022-11-04T08:08:28.125Z,18.60
2022-11-04T08:11:02.337Z,18.70
2022-11-04T08:13:35.364Z,17.00
2022-11-04T08:16:05.923Z,18.88
2022-11-04T08:18:33.941Z,13.48
2022-11-04T08:21:02.533Z,19.77
2022-11-04T08:23:30.106Z,14.10
2022-11-04T08:25:58.634Z,13.32
2022-11-04T08:28:26.505Z,12.90
2022-11-04T08:31:06.793Z,11.88
2022-11-04T08:33:35.404Z,15.45
2022-11-04T08:36:09.456Z,14.35
2022-11-04T08:38:37.147Z,14.88
2022-11-04T08:41:07.078Z,11.15
2022-11-04T08:43:34.897Z,16.50
2022-11-04T08:46:04.588Z,13.25
2022-11-04T08:48:32.060Z,14.98
2022-11-04T08:50:59.708Z,12.90
2022-11-04T08:53:27.832Z,13.75
2022-11-04T08:55:55.342Z,12.55
2022-11-04T08:58:24.835Z,11.52
2022-11-04T09:00:52.411Z,11.77
2022-11-04T09:03:20.178Z,12.77
2022-11-04T09:05:49.275Z,15.90
2022-11-04T09:08:17.963Z,13.77
2022-11-04T09:10:47.644Z,13.07
2022-11-04T09:13:16.021Z,10.00
2022-11-04T09:15:44.014Z,14.10
2022-11-04T09:18:11.153Z,20.17
2022-11-04T09:20:38.679Z,13.15
2022-11-04T09:23:06.835Z,11.15
2022-11-04T09:25:35.407Z,14.02
2022-11-04T09:28:03.119Z,16.20
2022-11-04T09:30:30.639Z,13.13
2022-11-04T09:32:58.507Z,11.15
2022-11-04T09:35:27.689Z,12.70
2022-11-04T09:37:55.476Z,11.48
2022-11-04T09:40:25.687Z,14.75
2022-11-04T09:43:11.388Z,13.73
2022-11-04T09:45:42.278Z,12.50
2022-11-04T09:48:19.968Z,13.45
2022-11-04T09:50:51.350Z,13.38
2022-11-04T09:53:28.386Z,12.80
2022-11-04T09:56:00.240Z,14.95
2022-11-04T09:58:33.156Z,12.27
2022-11-04T10:01:06.614Z,13.52
2022-11-04T10:03:41.301Z,15.55
2022-11-04T10:06:27.590Z,10.88
2022-11-04T10:09:36.810Z,14.88
2022-11-04T10:12:13.103Z,11.48
2022-11-04T10:15:08.713Z,17.67
2022-11-04T10:18:04.078Z,17.10
2022-11-04T10:20:31.170Z,16.10
2022-11-04T10:23:06.977Z,14.50
2022-11-04T10:25:44.163Z,16.58
2022-11-04T10:28:17.361Z,13.95
2022-11-04T10:30:49.054Z,11.90
2022-11-04T10:33:48.806Z,15.27
2022-11-04T10:36:18.030Z,14.38
2022-11-04T10:38:53.301Z,19.63
2022-11-04T10:41:24.901Z,16.88
2022-11-04T10:46:38.868Z,12.98
2022-11-04T10:49:37.483Z,11.50
2022-11-04T10:52:07.658Z,12.52
2022-11-04T10:54:43.647Z,12.95
2022-11-04T10:57:12.855Z,15.57
2022-11-04T10:59:52.094Z,15.15
2022-11-04T11:02:39.601Z,18.67
2022-11-04T11:05:14.604Z,17.88
2022-11-04T11:07:42.305Z,12.30
2022-11-04T11:10:19.919Z,20.52
2022-11-04T11:13:02.357Z,15.90
2022-11-04T11:15:35.123Z,16.55
2022-11-04T11:18:08.432Z,12.35
2022-11-04T11:20:38.126Z,15.45
2022-11-04T11:23:10.058Z,11.73
2022-11-04T11:25:45.363Z,15.20
2022-11-04T11:28:24.921Z,16.35
2022-11-04T11:31:00.360Z,17.42
2022-11-04T11:33:37.039Z,20.88
2022-11-04T11:36:15.523Z,16.33
2022-11-04T11:38:57.732Z,18.35
2022-11-04T11:41:31.656Z,15.65
2022-11-04T11:44:18.537Z,14.13
2022-11-04T11:46:54.777Z,16.17
2022-11-04T11:49:29.185Z,15.82
2022-11-04T11:52:23.174Z,15.07
2022-11-04T11:54:54.841Z,20.00
2022-11-04T11:57:39.240Z,17.17
2022-11-04T12:09:53.709Z,15.68
2022-11-04T12:12:33.424Z,13.68
2022-11-04T12:15:38.047Z,18.23
2022-11-04T12:18:14.357Z,13.80
2022-11-04T12:20:48.959Z,12.52
2022-11-04T12:23:28.380Z,16.40
2022-11-04T12:26:12.453Z,21.90
2022-11-04T12:29:29.879Z,16.45
2022-11-04T12:32:12.556Z,15.45
2022-11-04T12:35:05.783Z,16.80
2022-11-04T12:37:59.241Z,18.05
2022-11-04T12:44:34.908Z,13.40
2022-11-04T12:47:28.715Z,16.52
2022-11-04T12:50:28.409Z,16.05
2022-11-04T12:53:16.267Z,19.38
2022-11-04T12:56:08.445Z,15.60
2022-11-04T12:58:46.274Z,17.30
2022-11-04T13:01:39.399Z,15.20
2022-11-04T13:04:13.914Z,18.55
2022-11-04T13:07:01.220Z,15.45
2022-11-04T13:09:41.403Z,12.00
2022-11-04T13:12:28.855Z,15.07
2022-11-04T13:15:08.061Z,16.05
2022-11-04T13:17:40.096Z,16.88
2022-11-04T13:20:22.650Z,17.35
2022-11-04T13:22:55.726Z,15.25
2022-11-04T13:25:44.809Z,15.38
2022-11-04T13:28:13.982Z,15.35
2022-11-04T13:30:55.465Z,20.33
2022-11-04T13:33:47.828Z,14.68
2022-11-04T13:36:40.504Z,17.17
2022-11-04T13:39:25.282Z,16.67
2022-11-04T13:42:35.046Z,17.95
2022-11-04T13:45:12.477Z,17.45
2022-11-04T13:47:59.876Z,19.38
2022-11-04T13:50:35.603Z,16.30
2022-11-04T13:53:09.482Z,19.17
2022-11-04T13:55:49.242Z,16.63
2022-11-04T13:58:27.180Z,16.02
2022-11-04T14:01:27.210Z,18.95
2022-11-04T14:04:05.437Z,16.83
2022-11-04T14:06:51.229Z,16.52
2022-11-04T14:09:32.616Z,20.75
2022-11-04T14:12:17.172Z,15.88
2022-11-04T14:14:52.923Z,16.60
2022-11-04T14:17:35.637Z,16.67
2022-11-04T14:20:06.295Z,23.58
2022-11-04T14:22:38.912Z,20.13
2022-11-04T14:25:29.395Z,22.60
2022-11-04T14:28:02.896Z,19.35
2022-11-04T14:30:37.735Z,19.88
2022-11-04T14:33:38.329Z,18.77
2022-11-04T14:36:20.534Z,21.23
2022-11-04T14:39:04.194Z,22.38
2022-11-04T14:41:50.277Z,18.73
2022-11-04T14:44:45.750Z,18.38
2022-11-04T14:47:16.676Z,20.17
2022-11-04T14:50:00.153Z,19.45
2022-11-04T14:52:38.090Z,18.25
2022-11-04T14:55:11.518Z,20.67
2022-11-04T14:57:40.521Z,21.13
2022-11-04T15:00:23.196Z,26.52
2022-11-04T15:03:52.055Z,24.27
2022-11-04T15:06:07.631Z,20.65
2022-11-04T15:08:40.675Z,21.83
2022-11-04T15:11:16.918Z,27.25
2022-11-04T15:13:52.153Z,22.30
2022-11-04T15:16:25.879Z,23.52
2022-11-04T15:18:55.359Z,22.70
2022-11-04T15:21:23.292Z,22.63
2022-11-04T15:23:53.339Z,25.10
2022-11-04T15:26:30.674Z,23.52
2022-11-04T15:29:09.927Z,24.38
2022-11-04T15:31:55.505Z,26.45
2022-11-04T15:34:25.080Z,23.48
2022-11-04T15:36:56.583Z,24.77
2022-11-04T15:39:29.758Z,22.17
2022-11-04T15:42:22.493Z,22.00
2022-11-04T15:44:52.562Z,25.92
2022-11-04T15:47:20.162Z,34.40
2022-11-04T15:49:49.186Z,27.38
2022-11-04T15:52:20.958Z,25.15
2022-11-04T15:54:51.774Z,21.67
2022-11-04T15:57:26.625Z,21.13
2022-11-04T16:00:04.182Z,19.35
2022-11-04T16:02:47.173Z,23.95
2022-11-04T16:05:38.237Z,19.98
2022-11-04T16:08:24.075Z,20.23
2022-11-04T16:10:51.390Z,19.27
2022-11-04T16:13:23.646Z,22.73
2022-11-04T16:18:58.686Z,23.48
2022-11-04T16:21:32.873Z,24.13
2022-11-04T16:24:09.558Z,21.13
2022-11-04T16:26:45.511Z,20.58
2022-11-04T16:29:32.249Z,16.30
2022-11-04T16:32:21.562Z,17.25
2022-11-04T16:34:57.054Z,14.85
2022-11-04T16:37:25.789Z,18.05
2022-11-04T16:39:53.665Z,18.65
2022-11-04T16:42:22.299Z,15.65
2022-11-04T16:44:59.609Z,14.00
2022-11-04T16:47:29.990Z,13.32
2022-11-04T16:50:01.868Z,23.15
2022-11-04T16:52:29.245Z,14.13
2022-11-04T16:54:56.754Z,14.30
2022-11-04T16:57:25.555Z,14.85
2022-11-04T16:59:53.242Z,15.88
2022-11-04T17:02:27.538Z,12.85
2022-11-04T17:04:55.310Z,14.93
2022-11-04T17:07:35.189Z,14.98
2022-11-04T17:10:17.297Z,17.15
2022-11-04T17:12:45.338Z,14.90
2022-11-04T17:15:13.847Z,16.00
2022-11-04T17:17:41.716Z,18.40
2022-11-04T17:20:14.108Z,16.15
2022-11-04T17:22:41.447Z,12.25
2022-11-04T17:25:26.312Z,17.25
2022-11-04T17:27:53.785Z,15.00
2022-11-04T17:30:22.692Z,19.17
2022-11-04T17:32:50.584Z,13.38
2022-11-04T17:35:18.365Z,14.77
2022-11-04T17:37:45.521Z,17.13
2022-11-04T17:40:17.741Z,17.95
2022-11-04T17:45:40.262Z,14.88
2022-11-04T17:48:08.529Z,15.55
2022-11-04T17:50:38.800Z,19.00
2022-11-04T17:53:05.962Z,15.20
2022-11-04T17:55:39.975Z,21.05
2022-11-04T17:58:07.153Z,16.98
2022-11-04T18:00:34.675Z,18.15
2022-11-04T18:03:01.828Z,14.18
2022-11-04T18:05:29.357Z,15.95
2022-11-04T18:07:58.430Z,15.05
2022-11-04T18:10:25.950Z,15.18
2022-11-04T18:12:53.160Z,19.17
2022-11-04T18:15:20.760Z,15.93
2022-11-04T18:17:50.054Z,16.27
2022-11-04T18:20:17.576Z,18.40
2022-11-04T18:22:45.014Z,16.00
2022-11-04T18:25:12.934Z,20.05
2022-11-04T18:27:40.281Z,17.70
2022-11-04T18:30:08.431Z,14.25
2022-11-04T18:32:35.683Z,15.80
2022-11-04T18:35:03.152Z,21.02
2022-11-04T18:37:30.313Z,17.42
2022-11-04T18:39:57.832Z,17.75
2022-11-04T18:42:25.029Z,16.13
2022-11-04T18:44:52.513Z,27.52
2022-11-04T18:47:20.271Z,18.75
2022-11-04T18:49:48.054Z,14.13
2022-11-04T18:52:15.278Z,22.23
2022-11-04T18:54:43.546Z,15.85
2022-11-04T18:57:12.103Z,20.77
2022-11-04T18:59:39.654Z,17.77
2022-11-04T19:02:08.024Z,19.23
2022-11-04T19:04:35.558Z,14.85
2022-11-04T19:07:04.463Z,19.52
2022-11-04T19:09:47.890Z,17.27
2022-11-04T19:12:35.362Z,16.88
2022-11-04T19:15:04.596Z,19.98
2022-11-04T19:17:31.912Z,14.88
2022-11-04T19:19:59.406Z,18.98
2022-11-04T19:22:26.519Z,15.85
2022-11-04T19:24:54.022Z,17.63
2022-11-04T19:27:23.053Z,15.93
2022-11-04T19:29:51.246Z,17.65
2022-11-04T19:32:18.838Z,13.57
2022-11-04T19:34:46.533Z,20.20
2022-11-04T19:37:13.899Z,14.70
2022-11-04T19:39:41.861Z,14.60
2022-11-04T19:42:29.825Z,12.27
2022-11-04T19:44:57.355Z,17.88
2022-11-04T19:47:24.587Z,15.68
2022-11-04T19:49:52.243Z,15.30
2022-11-04T19:52:19.610Z,15.38
2022-11-04T19:54:47.270Z,16.55
2022-11-04T19:57:14.472Z,19.15
2022-11-04T19:59:41.973Z,17.73
2022-11-04T20:02:13.928Z,16.50
2022-11-04T20:04:41.522Z,16.67
2022-11-04T20:07:08.652Z,18.42
2022-11-04T20:09:36.200Z,18.80
2022-11-04T20:12:21.882Z,15.35
2022-11-04T20:14:49.390Z,17.08
2022-11-04T20:17:16.594Z,19.27
2022-11-04T20:19:44.194Z,18.48
2022-11-04T20:22:11.369Z,22.38
2022-11-04T20:24:38.895Z,16.63
2022-11-04T20:27:06.040Z,17.73
2022-11-04T20:29:33.803Z,16.67
2022-11-04T20:32:00.975Z,13.65
2022-11-04T20:34:32.656Z,14.30
2022-11-04T20:37:00.846Z,16.05
2022-11-04T20:39:28.327Z,16.35
2022-11-04T20:41:55.566Z,19.85
2022-11-04T20:44:23.058Z,16.25
2022-11-04T20:46:50.180Z,16.83
2022-11-04T20:49:17.621Z,16.25
2022-11-04T20:51:50.176Z,18.58
2022-11-04T20:54:20.938Z,16.30
2022-11-04T20:56:48.125Z,18.73
2022-11-04T20:59:15.612Z,14.38
2022-11-04T21:01:45.079Z,16.52
2022-11-04T21:04:15.261Z,16.25
2022-11-04T21:06:42.900Z,16.88
2022-11-04T21:09:13.409Z,17.88
2022-11-04T21:11:41.112Z,20.77
2022-11-04T21:14:11.765Z,20.95
2022-11-04T21:16:39.042Z,18.73
2022-11-04T21:19:07.759Z,12.98
2022-11-04T21:21:35.196Z,18.02
2022-11-04T21:24:05.083Z,16.80
2022-11-04T21:26:35.460Z,16.95
2022-11-04T21:29:07.027Z,19.00
2022-11-04T21:31:36.191Z,15.38
2022-11-04T21:34:04.754Z,17.58
2022-11-04T21:36:32.599Z,15.38
2022-11-04T21:39:00.327Z,16.20
2022-11-04T21:41:29.777Z,16.95
2022-11-04T21:43:59.204Z,15.73
2022-11-04T21:46:28.264Z,15.63
2022-11-04T21:48:56.332Z,16.00
2022-11-04T21:51:26.317Z,17.52
2022-11-04T21:53:53.788Z,17.30
2022-11-04T21:56:26.469Z,15.68
2022-11-04T21:58:55.172Z,15.68
2022-11-04T22:01:25.969Z,18.02
2022-11-04T22:03:56.202Z,17.23
2022-11-04T22:06:23.844Z,13.25
2022-11-04T22:08:54.351Z,13.80
2022-11-04T22:11:24.619Z,19.48
2022-11-04T22:13:58.020Z,14.88
2022-11-04T22:16:27.639Z,16.20
2022-11-04T22:18:57.586Z,14.43
2022-11-04T22:21:27.031Z,11.45
2022-11-04T22:23:55.008Z,17.45
2022-11-04T22:26:24.846Z,14.20
2022-11-04T22:28:53.508Z,11.85
2022-11-04T22:31:27.301Z,16.48
2022-11-04T22:33:55.734Z,16.98
2022-11-04T22:36:23.506Z,24.17
2022-11-04T22:38:51.085Z,14.95
2022-11-04T22:41:24.203Z,15.82
2022-11-04T22:43:51.810Z,15.65
2022-11-04T22:46:21.685Z,12.85
2022-11-04T22:48:49.435Z,17.30
2022-11-04T22:51:17.522Z,15.13
2022-11-04T22:53:45.334Z,13.30
2022-11-04T22:56:14.376Z,15.20
2022-11-04T22:58:41.867Z,18.83
2022-11-04T23:01:11.739Z,13.57
2022-11-04T23:03:39.984Z,15.90
2022-11-04T23:06:08.443Z,13.40
2022-11-04T23:08:36.865Z,13.63
2022-11-04T23:11:32.137Z,11.60
2022-11-04T23:14:20.800Z,15.05
2022-11-04T23:17:08.992Z,13.07
2022-11-04T23:19:37.357Z,12.55
2022-11-04T23:22:23.603Z,16.52
2022-11-04T23:25:06.186Z,11.32
2022-11-04T23:28:03.585Z,14.70
2022-11-04T23:30:37.204Z,12.32
2022-11-04T23:33:10.362Z,13.57
2022-11-04T23:35:58.470Z,12.02
2022-11-04T23:38:26.703Z,14.68
2022-11-04T23:41:14.693Z,14.82
2022-11-04T23:43:42.059Z,13.88
2022-11-04T23:46:29.833Z,18.17
2022-11-04T23:49:15.997Z,13.70
2022-11-04T23:52:02.048Z,14.25
2022-11-04T23:54:47.738Z,19.33
2022-11-04T23:57:36.785Z,15.68
